Terminal Aerodrome Forecast
Issued by NWS Upton, NY

Home | Current Version | Previous Version | Text Only | Print | Product List | Glossary On
Versions: 1 2 3 4 5 6 7 8 9 10 11 12 13 14 15 16 17 18 19 20 21 22 23 24 25 26 27
000
FTUS41 KOKX 191300 AAA
TAFLGA
TAF AMD
KLGA 191303Z 1913/2012 05014G23KT P6SM FEW025 SCT050
     FM191500 05012G17KT P6SM FEW030 SCT050
     FM191800 07011KT P6SM SCT030
     FM192100 11010KT P6SM SCT035
     FM200300 13010KT P6SM SCT030
     FM200900 15005KT P6SM BKN030=

USA.gov is the U.S. government's official web portal to all federal, state and local government web resources and services.